Carp, Minnesota
Current Conditions -  °F | °C
As of 7:53 AM on Friday 24 Oct 2014 (Local Time) from KBDE Reporting Station
Clear Clear  
Wind Chill: 46°   Ceiling: Unl
Heat Index: 48°   Visibility: 10mi
Dew Point: 40°   Wind: 5mph
Humidity: 74%   Direction: 210°SSW
Pressure: 29.73"   Gusts: NA
Location:  48.5595°N, 94.661°W
Report Text: KBDE 241253Z AUTO 21004KT 10SM CLR 09/04 A2973 RMK AO2 SLP074 T00890044 TSNO
Loading
Personal Weather Stations






























Interactive Weather Map
Tropical Storm Tracking
New forecast layout! Learn more

10-Day Weather Forecast

Advertisements
Track Severe Weather on mobile